sensor_id;sensor_type;location;lat;lon;timestamp;P1;durP1;ratioP1;P2;durP2;ratioP2
50803;SDS011;37205;51.434;6.756;2024-01-30T00:01:43;12.05;;;9.18;;
50803;SDS011;37205;51.434;6.756;2024-01-30T00:04:09;13.20;;;9.20;;
50803;SDS011;37205;51.434;6.756;2024-01-30T00:06:34;11.02;;;8.75;;
50803;SDS011;37205;51.434;6.756;2024-01-30T00:09:00;13.07;;;8.48;;
50803;SDS011;37205;51.434;6.756;2024-01-30T00:11:25;11.35;;;8.52;;
50803;SDS011;37205;51.434;6.756;2024-01-30T00:13:51;14.05;;;9.57;;
50803;SDS011;37205;51.434;6.756;2024-01-30T00:16:20;11.43;;;9.48;;
50803;SDS011;37205;51.434;6.756;2024-01-30T00:18:47;12.25;;;8.43;;
50803;SDS011;37205;51.434;6.756;2024-01-30T00:21:13;10.82;;;8.65;;
50803;SDS011;37205;51.434;6.756;2024-01-30T00:23:39;14.85;;;8.60;;
50803;SDS011;37205;51.434;6.756;2024-01-30T00:26:04;11.05;;;8.52;;
50803;SDS011;37205;51.434;6.756;2024-01-30T00:28:31;13.40;;;8.95;;
50803;SDS011;37205;51.434;6.756;2024-01-30T00:30:56;9.77;;;7.88;;
50803;SDS011;37205;51.434;6.756;2024-01-30T00:33:22;10.65;;;8.48;;
50803;SDS011;37205;51.434;6.756;2024-01-30T00:35:47;11.70;;;8.77;;
50803;SDS011;37205;51.434;6.756;2024-01-30T00:38:13;11.82;;;8.70;;
50803;SDS011;37205;51.434;6.756;2024-01-30T00:40:38;11.63;;;8.95;;
50803;SDS011;37205;51.434;6.756;2024-01-30T00:43:04;12.20;;;8.95;;
50803;SDS011;37205;51.434;6.756;2024-01-30T00:45:29;14.98;;;9.25;;
50803;SDS011;37205;51.434;6.756;2024-01-30T00:47:55;13.45;;;9.00;;
50803;SDS011;37205;51.434;6.756;2024-01-30T00:50:20;12.93;;;9.23;;
50803;SDS011;37205;51.434;6.756;2024-01-30T00:52:46;13.77;;;9.38;;
50803;SDS011;37205;51.434;6.756;2024-01-30T00:55:11;12.50;;;9.15;;
50803;SDS011;37205;51.434;6.756;2024-01-30T00:57:37;12.27;;;8.57;;
50803;SDS011;37205;51.434;6.756;2024-01-30T01:00:03;14.07;;;9.70;;
50803;SDS011;37205;51.434;6.756;2024-01-30T01:02:31;11.18;;;9.35;;
50803;SDS011;37205;51.434;6.756;2024-01-30T01:04:56;11.40;;;8.93;;
50803;SDS011;37205;51.434;6.756;2024-01-30T01:07:22;12.02;;;8.30;;
50803;SDS011;37205;51.434;6.756;2024-01-30T01:09:48;10.50;;;9.07;;
50803;SDS011;37205;51.434;6.756;2024-01-30T01:12:13;11.77;;;8.75;;
50803;SDS011;37205;51.434;6.756;2024-01-30T01:14:39;13.60;;;9.25;;
50803;SDS011;37205;51.434;6.756;2024-01-30T01:17:04;11.38;;;8.85;;
50803;SDS011;37205;51.434;6.756;2024-01-30T01:19:30;12.43;;;8.95;;
50803;SDS011;37205;51.434;6.756;2024-01-30T01:21:55;13.27;;;8.85;;
50803;SDS011;37205;51.434;6.756;2024-01-30T01:24:21;12.68;;;9.27;;
50803;SDS011;37205;51.434;6.756;2024-01-30T01:26:47;13.15;;;9.45;;
50803;SDS011;37205;51.434;6.756;2024-01-30T01:29:12;11.52;;;8.55;;
50803;SDS011;37205;51.434;6.756;2024-01-30T01:31:38;13.57;;;9.10;;
50803;SDS011;37205;51.434;6.756;2024-01-30T01:34:10;13.13;;;8.75;;
50803;SDS011;37205;51.434;6.756;2024-01-30T01:36:36;15.23;;;9.40;;
50803;SDS011;37205;51.434;6.756;2024-01-30T01:39:01;14.35;;;9.07;;
50803;SDS011;37205;51.434;6.756;2024-01-30T01:41:34;11.68;;;8.85;;
50803;SDS011;37205;51.434;6.756;2024-01-30T01:43:59;15.32;;;9.55;;
50803;SDS011;37205;51.434;6.756;2024-01-30T01:46:29;12.57;;;8.90;;
50803;SDS011;37205;51.434;6.756;2024-01-30T01:48:57;12.90;;;9.18;;
50803;SDS011;37205;51.434;6.756;2024-01-30T01:51:23;11.98;;;9.20;;
50803;SDS011;37205;51.434;6.756;2024-01-30T01:53:52;12.52;;;9.52;;
50803;SDS011;37205;51.434;6.756;2024-01-30T01:56:19;15.85;;;8.90;;
50803;SDS011;37205;51.434;6.756;2024-01-30T01:58:44;11.70;;;9.23;;
50803;SDS011;37205;51.434;6.756;2024-01-30T02:01:12;12.90;;;9.52;;
50803;SDS011;37205;51.434;6.756;2024-01-30T02:03:42;13.35;;;9.02;;
50803;SDS011;37205;51.434;6.756;2024-01-30T02:06:07;11.05;;;9.00;;
50803;SDS011;37205;51.434;6.756;2024-01-30T02:08:33;11.18;;;8.98;;
50803;SDS011;37205;51.434;6.756;2024-01-30T02:10:59;11.35;;;9.27;;
50803;SDS011;37205;51.434;6.756;2024-01-30T02:13:25;12.68;;;9.02;;
50803;SDS011;37205;51.434;6.756;2024-01-30T02:15:53;14.65;;;9.07;;
50803;SDS011;37205;51.434;6.756;2024-01-30T02:18:19;12.80;;;9.50;;
50803;SDS011;37205;51.434;6.756;2024-01-30T02:20:46;11.27;;;8.90;;
50803;SDS011;37205;51.434;6.756;2024-01-30T02:23:12;15.40;;;9.02;;
50803;SDS011;37205;51.434;6.756;2024-01-30T02:25:40;15.80;;;9.77;;
50803;SDS011;37205;51.434;6.756;2024-01-30T02:28:15;15.50;;;9.77;;
50803;SDS011;37205;51.434;6.756;2024-01-30T02:30:43;12.57;;;9.25;;
50803;SDS011;37205;51.434;6.756;2024-01-30T02:33:09;11.60;;;8.93;;
50803;SDS011;37205;51.434;6.756;2024-01-30T02:35:35;13.57;;;9.68;;
50803;SDS011;37205;51.434;6.756;2024-01-30T02:38:00;13.55;;;10.05;;
50803;SDS011;37205;51.434;6.756;2024-01-30T02:40:26;11.88;;;9.13;;
50803;SDS011;37205;51.434;6.756;2024-01-30T02:42:52;15.40;;;9.60;;
50803;SDS011;37205;51.434;6.756;2024-01-30T02:45:17;12.45;;;9.48;;
50803;SDS011;37205;51.434;6.756;2024-01-30T02:47:43;14.02;;;9.50;;
50803;SDS011;37205;51.434;6.756;2024-01-30T02:50:09;14.05;;;9.55;;
50803;SDS011;37205;51.434;6.756;2024-01-30T02:52:35;12.05;;;8.73;;
50803;SDS011;37205;51.434;6.756;2024-01-30T02:55:00;13.07;;;9.10;;
50803;SDS011;37205;51.434;6.756;2024-01-30T02:57:27;13.27;;;9.30;;
50803;SDS011;37205;51.434;6.756;2024-01-30T02:59:53;15.68;;;9.27;;
50803;SDS011;37205;51.434;6.756;2024-01-30T03:02:19;14.70;;;10.02;;
50803;SDS011;37205;51.434;6.756;2024-01-30T03:04:44;12.52;;;8.98;;
50803;SDS011;37205;51.434;6.756;2024-01-30T03:07:10;10.80;;;8.38;;
50803;SDS011;37205;51.434;6.756;2024-01-30T03:09:36;12.88;;;9.32;;
50803;SDS011;37205;51.434;6.756;2024-01-30T03:12:02;12.10;;;8.90;;
50803;SDS011;37205;51.434;6.756;2024-01-30T03:14:30;13.13;;;8.65;;
50803;SDS011;37205;51.434;6.756;2024-01-30T03:16:56;15.40;;;8.85;;
50803;SDS011;37205;51.434;6.756;2024-01-30T03:19:21;12.13;;;9.00;;
50803;SDS011;37205;51.434;6.756;2024-01-30T03:21:47;12.60;;;8.65;;
50803;SDS011;37205;51.434;6.756;2024-01-30T03:24:12;10.60;;;8.63;;
50803;SDS011;37205;51.434;6.756;2024-01-30T03:26:38;12.73;;;8.68;;
50803;SDS011;37205;51.434;6.756;2024-01-30T03:29:03;11.63;;;8.57;;
50803;SDS011;37205;51.434;6.756;2024-01-30T03:31:29;12.57;;;8.88;;
50803;SDS011;37205;51.434;6.756;2024-01-30T03:33:54;14.18;;;8.25;;
50803;SDS011;37205;51.434;6.756;2024-01-30T03:36:20;11.10;;;8.93;;
50803;SDS011;37205;51.434;6.756;2024-01-30T03:38:45;11.30;;;8.27;;
50803;SDS011;37205;51.434;6.756;2024-01-30T03:41:11;14.60;;;9.13;;
50803;SDS011;37205;51.434;6.756;2024-01-30T03:43:36;12.52;;;8.70;;
50803;SDS011;37205;51.434;6.756;2024-01-30T03:46:02;11.75;;;8.50;;
50803;SDS011;37205;51.434;6.756;2024-01-30T03:48:28;12.82;;;9.23;;
50803;SDS011;37205;51.434;6.756;2024-01-30T03:50:54;11.57;;;8.52;;
50803;SDS011;37205;51.434;6.756;2024-01-30T03:53:20;15.10;;;9.48;;
50803;SDS011;37205;51.434;6.756;2024-01-30T03:55:45;15.82;;;9.23;;
50803;SDS011;37205;51.434;6.756;2024-01-30T03:58:11;16.15;;;8.80;;
50803;SDS011;37205;51.434;6.756;2024-01-30T04:00:36;11.73;;;8.20;;
50803;SDS011;37205;51.434;6.756;2024-01-30T04:03:02;14.40;;;9.55;;
50803;SDS011;37205;51.434;6.756;2024-01-30T04:05:28;11.00;;;8.18;;
50803;SDS011;37205;51.434;6.756;2024-01-30T04:07:53;10.50;;;8.05;;
50803;SDS011;37205;51.434;6.756;2024-01-30T04:10:19;11.73;;;8.95;;
50803;SDS011;37205;51.434;6.756;2024-01-30T04:12:45;11.93;;;8.73;;
50803;SDS011;37205;51.434;6.756;2024-01-30T04:15:10;13.13;;;8.90;;
50803;SDS011;37205;51.434;6.756;2024-01-30T04:17:36;13.88;;;8.35;;
50803;SDS011;37205;51.434;6.756;2024-01-30T04:20:01;13.43;;;8.70;;
50803;SDS011;37205;51.434;6.756;2024-01-30T04:22:27;11.85;;;8.82;;
50803;SDS011;37205;51.434;6.756;2024-01-30T04:24:52;14.50;;;9.23;;
50803;SDS011;37205;51.434;6.756;2024-01-30T04:27:18;13.98;;;8.65;;
50803;SDS011;37205;51.434;6.756;2024-01-30T04:29:43;13.93;;;9.40;;
50803;SDS011;37205;51.434;6.756;2024-01-30T04:32:09;15.68;;;8.90;;
50803;SDS011;37205;51.434;6.756;2024-01-30T04:34:36;14.95;;;8.65;;
50803;SDS011;37205;51.434;6.756;2024-01-30T04:37:02;11.90;;;8.38;;
50803;SDS011;37205;51.434;6.756;2024-01-30T04:39:27;12.77;;;8.73;;
50803;SDS011;37205;51.434;6.756;2024-01-30T04:41:53;12.82;;;8.68;;
50803;SDS011;37205;51.434;6.756;2024-01-30T04:44:18;12.25;;;9.05;;
50803;SDS011;37205;51.434;6.756;2024-01-30T04:46:44;13.57;;;8.48;;
50803;SDS011;37205;51.434;6.756;2024-01-30T04:49:10;12.70;;;9.18;;
50803;SDS011;37205;51.434;6.756;2024-01-30T04:51:36;11.27;;;8.85;;
50803;SDS011;37205;51.434;6.756;2024-01-30T04:54:01;10.60;;;8.75;;
50803;SDS011;37205;51.434;6.756;2024-01-30T04:56:43;13.07;;;8.40;;
50803;SDS011;37205;51.434;6.756;2024-01-30T04:59:15;10.90;;;8.48;;
50803;SDS011;37205;51.434;6.756;2024-01-30T05:01:40;12.23;;;9.30;;
50803;SDS011;37205;51.434;6.756;2024-01-30T05:04:09;11.75;;;8.70;;
50803;SDS011;37205;51.434;6.756;2024-01-30T05:06:44;10.68;;;8.77;;
50803;SDS011;37205;51.434;6.756;2024-01-30T05:09:10;11.18;;;8.68;;
50803;SDS011;37205;51.434;6.756;2024-01-30T05:11:36;13.18;;;8.43;;
50803;SDS011;37205;51.434;6.756;2024-01-30T05:14:03;12.82;;;8.55;;
50803;SDS011;37205;51.434;6.756;2024-01-30T05:16:29;12.02;;;8.52;;
50803;SDS011;37205;51.434;6.756;2024-01-30T05:18:54;12.20;;;9.15;;
50803;SDS011;37205;51.434;6.756;2024-01-30T05:21:20;12.20;;;8.30;;
50803;SDS011;37205;51.434;6.756;2024-01-30T05:23:45;14.40;;;9.13;;
50803;SDS011;37205;51.434;6.756;2024-01-30T05:26:11;12.63;;;8.40;;
50803;SDS011;37205;51.434;6.756;2024-01-30T05:28:36;13.18;;;8.48;;
50803;SDS011;37205;51.434;6.756;2024-01-30T05:31:02;12.73;;;8.57;;
50803;SDS011;37205;51.434;6.756;2024-01-30T05:33:28;12.32;;;8.38;;
50803;SDS011;37205;51.434;6.756;2024-01-30T05:36:00;11.27;;;8.25;;
50803;SDS011;37205;51.434;6.756;2024-01-30T05:38:31;16.45;;;8.88;;
50803;SDS011;37205;51.434;6.756;2024-01-30T05:40:57;12.10;;;8.57;;
50803;SDS011;37205;51.434;6.756;2024-01-30T05:43:23;13.60;;;8.10;;
50803;SDS011;37205;51.434;6.756;2024-01-30T05:45:49;11.68;;;7.88;;
50803;SDS011;37205;51.434;6.756;2024-01-30T05:48:15;13.48;;;8.73;;
50803;SDS011;37205;51.434;6.756;2024-01-30T05:50:40;13.07;;;9.05;;
50803;SDS011;37205;51.434;6.756;2024-01-30T05:53:06;14.20;;;8.27;;
50803;SDS011;37205;51.434;6.756;2024-01-30T05:55:31;11.93;;;8.50;;
50803;SDS011;37205;51.434;6.756;2024-01-30T05:57:59;10.02;;;8.45;;
50803;SDS011;37205;51.434;6.756;2024-01-30T06:00:25;12.82;;;8.10;;
50803;SDS011;37205;51.434;6.756;2024-01-30T06:02:58;10.52;;;7.55;;
50803;SDS011;37205;51.434;6.756;2024-01-30T06:05:28;11.95;;;9.05;;
50803;SDS011;37205;51.434;6.756;2024-01-30T06:07:54;12.38;;;7.68;;
50803;SDS011;37205;51.434;6.756;2024-01-30T06:10:19;10.88;;;7.88;;
50803;SDS011;37205;51.434;6.756;2024-01-30T06:12:45;11.25;;;7.80;;
50803;SDS011;37205;51.434;6.756;2024-01-30T06:15:13;12.15;;;7.90;;
50803;SDS011;37205;51.434;6.756;2024-01-30T06:17:39;12.50;;;8.27;;
50803;SDS011;37205;51.434;6.756;2024-01-30T06:20:05;13.10;;;8.55;;
50803;SDS011;37205;51.434;6.756;2024-01-30T06:22:31;10.70;;;8.05;;
50803;SDS011;37205;51.434;6.756;2024-01-30T06:24:59;10.73;;;7.90;;
50803;SDS011;37205;51.434;6.756;2024-01-30T06:27:24;11.25;;;7.97;;
50803;SDS011;37205;51.434;6.756;2024-01-30T06:29:50;11.35;;;8.77;;
50803;SDS011;37205;51.434;6.756;2024-01-30T06:32:15;10.40;;;8.05;;
50803;SDS011;37205;51.434;6.756;2024-01-30T06:34:41;12.40;;;7.93;;
50803;SDS011;37205;51.434;6.756;2024-01-30T06:37:09;13.15;;;8.60;;
50803;SDS011;37205;51.434;6.756;2024-01-30T06:39:34;11.50;;;7.90;;
50803;SDS011;37205;51.434;6.756;2024-01-30T06:42:00;10.23;;;7.75;;
50803;SDS011;37205;51.434;6.756;2024-01-30T06:44:25;11.95;;;8.52;;
50803;SDS011;37205;51.434;6.756;2024-01-30T06:46:51;11.40;;;8.23;;
50803;SDS011;37205;51.434;6.756;2024-01-30T06:49:16;11.30;;;7.60;;
50803;SDS011;37205;51.434;6.756;2024-01-30T06:51:42;9.75;;;7.65;;
50803;SDS011;37205;51.434;6.756;2024-01-30T06:54:07;13.73;;;8.52;;
50803;SDS011;37205;51.434;6.756;2024-01-30T06:56:33;10.75;;;8.25;;
50803;SDS011;37205;51.434;6.756;2024-01-30T06:58:59;11.77;;;8.88;;
50803;SDS011;37205;51.434;6.756;2024-01-30T07:01:30;11.10;;;7.78;;
50803;SDS011;37205;51.434;6.756;2024-01-30T07:03:56;11.40;;;7.70;;
50803;SDS011;37205;51.434;6.756;2024-01-30T07:06:22;13.00;;;8.35;;
50803;SDS011;37205;51.434;6.756;2024-01-30T07:08:49;13.75;;;8.32;;
50803;SDS011;37205;51.434;6.756;2024-01-30T07:11:20;11.90;;;8.10;;
50803;SDS011;37205;51.434;6.756;2024-01-30T07:13:47;12.55;;;8.77;;
50803;SDS011;37205;51.434;6.756;2024-01-30T07:16:14;12.73;;;8.57;;
50803;SDS011;37205;51.434;6.756;2024-01-30T07:18:39;13.75;;;8.57;;
50803;SDS011;37205;51.434;6.756;2024-01-30T07:21:05;13.90;;;8.82;;
50803;SDS011;37205;51.434;6.756;2024-01-30T07:23:30;10.93;;;7.53;;
50803;SDS011;37205;51.434;6.756;2024-01-30T07:25:56;12.07;;;8.30;;
50803;SDS011;37205;51.434;6.756;2024-01-30T07:28:22;11.50;;;8.35;;
50803;SDS011;37205;51.434;6.756;2024-01-30T07:30:47;14.73;;;8.30;;
50803;SDS011;37205;51.434;6.756;2024-01-30T07:33:13;11.07;;;7.55;;
50803;SDS011;37205;51.434;6.756;2024-01-30T07:35:39;14.75;;;8.50;;
50803;SDS011;37205;51.434;6.756;2024-01-30T07:38:05;11.93;;;7.95;;
50803;SDS011;37205;51.434;6.756;2024-01-30T07:40:30;10.45;;;7.85;;
50803;SDS011;37205;51.434;6.756;2024-01-30T07:42:57;11.38;;;7.95;;
50803;SDS011;37205;51.434;6.756;2024-01-30T07:45:22;12.23;;;8.52;;
50803;SDS011;37205;51.434;6.756;2024-01-30T07:47:49;10.75;;;8.45;;
50803;SDS011;37205;51.434;6.756;2024-01-30T07:50:15;11.75;;;8.18;;
50803;SDS011;37205;51.434;6.756;2024-01-30T07:52:41;12.60;;;8.55;;
50803;SDS011;37205;51.434;6.756;2024-01-30T07:55:07;15.20;;;8.27;;
50803;SDS011;37205;51.434;6.756;2024-01-30T07:57:33;13.32;;;8.20;;
50803;SDS011;37205;51.434;6.756;2024-01-30T07:59:59;13.30;;;8.70;;
50803;SDS011;37205;51.434;6.756;2024-01-30T08:02:25;11.85;;;8.65;;
50803;SDS011;37205;51.434;6.756;2024-01-30T08:04:51;10.73;;;7.63;;
50803;SDS011;37205;51.434;6.756;2024-01-30T08:07:16;15.63;;;9.02;;
50803;SDS011;37205;51.434;6.756;2024-01-30T08:09:42;10.20;;;8.20;;
50803;SDS011;37205;51.434;6.756;2024-01-30T08:12:08;13.98;;;8.32;;
50803;SDS011;37205;51.434;6.756;2024-01-30T08:14:34;13.32;;;8.75;;
50803;SDS011;37205;51.434;6.756;2024-01-30T08:16:59;16.58;;;8.10;;
50803;SDS011;37205;51.434;6.756;2024-01-30T08:19:25;11.23;;;8.50;;
50803;SDS011;37205;51.434;6.756;2024-01-30T08:21:50;14.02;;;8.55;;
50803;SDS011;37205;51.434;6.756;2024-01-30T08:24:16;13.90;;;9.10;;
50803;SDS011;37205;51.434;6.756;2024-01-30T08:26:42;14.70;;;8.43;;
50803;SDS011;37205;51.434;6.756;2024-01-30T08:29:07;11.43;;;8.70;;
50803;SDS011;37205;51.434;6.756;2024-01-30T08:31:33;13.40;;;9.13;;
50803;SDS011;37205;51.434;6.756;2024-01-30T08:33:58;12.30;;;8.48;;
50803;SDS011;37205;51.434;6.756;2024-01-30T08:36:24;13.07;;;8.55;;
50803;SDS011;37205;51.434;6.756;2024-01-30T08:38:50;14.98;;;8.98;;
50803;SDS011;37205;51.434;6.756;2024-01-30T08:41:15;10.75;;;8.13;;
50803;SDS011;37205;51.434;6.756;2024-01-30T08:43:41;11.27;;;8.35;;
50803;SDS011;37205;51.434;6.756;2024-01-30T08:46:06;12.52;;;8.95;;
50803;SDS011;37205;51.434;6.756;2024-01-30T08:48:32;13.00;;;8.52;;
50803;SDS011;37205;51.434;6.756;2024-01-30T08:50:57;11.85;;;8.77;;
50803;SDS011;37205;51.434;6.756;2024-01-30T08:53:23;13.43;;;8.85;;
50803;SDS011;37205;51.434;6.756;2024-01-30T08:55:49;11.95;;;8.70;;
50803;SDS011;37205;51.434;6.756;2024-01-30T08:58:15;12.38;;;8.93;;
50803;SDS011;37205;51.434;6.756;2024-01-30T09:00:43;11.57;;;8.82;;
50803;SDS011;37205;51.434;6.756;2024-01-30T09:03:09;12.55;;;8.73;;
50803;SDS011;37205;51.434;6.756;2024-01-30T09:05:34;12.82;;;8.48;;
50803;SDS011;37205;51.434;6.756;2024-01-30T09:08:00;13.15;;;9.35;;
50803;SDS011;37205;51.434;6.756;2024-01-30T09:10:25;12.90;;;8.82;;
50803;SDS011;37205;51.434;6.756;2024-01-30T09:12:51;14.70;;;8.93;;
50803;SDS011;37205;51.434;6.756;2024-01-30T09:15:17;11.40;;;8.73;;
50803;SDS011;37205;51.434;6.756;2024-01-30T09:17:43;14.13;;;9.00;;
50803;SDS011;37205;51.434;6.756;2024-01-30T09:20:09;14.02;;;9.88;;
50803;SDS011;37205;51.434;6.756;2024-01-30T09:22:35;13.30;;;9.32;;
50803;SDS011;37205;51.434;6.756;2024-01-30T09:25:01;13.55;;;9.25;;
50803;SDS011;37205;51.434;6.756;2024-01-30T09:27:26;12.73;;;8.30;;
50803;SDS011;37205;51.434;6.756;2024-01-30T09:29:52;15.02;;;9.32;;
50803;SDS011;37205;51.434;6.756;2024-01-30T09:32:17;12.93;;;9.38;;
50803;SDS011;37205;51.434;6.756;2024-01-30T09:34:43;16.10;;;9.95;;
50803;SDS011;37205;51.434;6.756;2024-01-30T09:37:09;12.27;;;9.05;;
50803;SDS011;37205;51.434;6.756;2024-01-30T09:39:34;13.55;;;9.68;;
50803;SDS011;37205;51.434;6.756;2024-01-30T09:42:33;14.80;;;9.77;;
50803;SDS011;37205;51.434;6.756;2024-01-30T09:47:19;15.70;;;9.88;;
50803;SDS011;37205;51.434;6.756;2024-01-30T09:49:45;13.07;;;9.45;;
50803;SDS011;37205;51.434;6.756;2024-01-30T09:52:11;13.18;;;9.77;;
50803;SDS011;37205;51.434;6.756;2024-01-30T09:54:37;15.18;;;9.30;;
50803;SDS011;37205;51.434;6.756;2024-01-30T09:57:04;12.65;;;8.85;;
50803;SDS011;37205;51.434;6.756;2024-01-30T09:59:30;14.40;;;9.57;;
50803;SDS011;37205;51.434;6.756;2024-01-30T10:01:56;13.75;;;8.93;;
50803;SDS011;37205;51.434;6.756;2024-01-30T10:04:22;13.57;;;9.50;;
50803;SDS011;37205;51.434;6.756;2024-01-30T10:06:48;12.90;;;9.50;;
50803;SDS011;37205;51.434;6.756;2024-01-30T10:09:14;12.50;;;9.50;;
50803;SDS011;37205;51.434;6.756;2024-01-30T10:11:40;12.73;;;9.27;;
50803;SDS011;37205;51.434;6.756;2024-01-30T10:14:05;12.48;;;9.00;;
50803;SDS011;37205;51.434;6.756;2024-01-30T10:16:31;13.52;;;8.85;;
50803;SDS011;37205;51.434;6.756;2024-01-30T10:18:56;15.07;;;9.70;;
50803;SDS011;37205;51.434;6.756;2024-01-30T10:21:22;15.27;;;9.90;;
50803;SDS011;37205;51.434;6.756;2024-01-30T10:23:48;14.75;;;9.57;;
50803;SDS011;37205;51.434;6.756;2024-01-30T10:26:16;11.25;;;8.70;;
50803;SDS011;37205;51.434;6.756;2024-01-30T10:28:42;12.27;;;9.55;;
50803;SDS011;37205;51.434;6.756;2024-01-30T10:31:08;13.52;;;9.48;;
50803;SDS011;37205;51.434;6.756;2024-01-30T10:33:33;13.75;;;9.60;;
50803;SDS011;37205;51.434;6.756;2024-01-30T10:36:03;13.68;;;9.57;;
50803;SDS011;37205;51.434;6.756;2024-01-30T10:38:30;12.23;;;9.23;;
50803;SDS011;37205;51.434;6.756;2024-01-30T10:40:57;13.20;;;9.88;;
50803;SDS011;37205;51.434;6.756;2024-01-30T10:43:24;12.95;;;9.68;;
50803;SDS011;37205;51.434;6.756;2024-01-30T10:46:01;17.42;;;9.80;;
50803;SDS011;37205;51.434;6.756;2024-01-30T10:48:36;14.40;;;9.30;;
50803;SDS011;37205;51.434;6.756;2024-01-30T10:51:07;17.23;;;9.70;;
50803;SDS011;37205;51.434;6.756;2024-01-30T10:53:34;13.77;;;9.13;;
50803;SDS011;37205;51.434;6.756;2024-01-30T10:55:59;18.00;;;9.75;;
50803;SDS011;37205;51.434;6.756;2024-01-30T10:58:26;14.55;;;9.68;;
50803;SDS011;37205;51.434;6.756;2024-01-30T11:00:52;16.27;;;9.20;;
50803;SDS011;37205;51.434;6.756;2024-01-30T11:03:19;12.75;;;9.32;;
50803;SDS011;37205;51.434;6.756;2024-01-30T11:05:48;11.93;;;8.80;;
50803;SDS011;37205;51.434;6.756;2024-01-30T11:08:22;16.75;;;10.45;;
50803;SDS011;37205;51.434;6.756;2024-01-30T11:10:49;13.90;;;9.73;;
50803;SDS011;37205;51.434;6.756;2024-01-30T11:13:15;15.80;;;10.23;;
50803;SDS011;37205;51.434;6.756;2024-01-30T11:15:40;12.40;;;8.90;;
50803;SDS011;37205;51.434;6.756;2024-01-30T11:18:06;11.88;;;9.00;;
50803;SDS011;37205;51.434;6.756;2024-01-30T11:20:32;13.68;;;9.52;;
50803;SDS011;37205;51.434;6.756;2024-01-30T11:22:57;13.65;;;8.98;;
50803;SDS011;37205;51.434;6.756;2024-01-30T11:25:24;12.45;;;8.93;;
50803;SDS011;37205;51.434;6.756;2024-01-30T11:27:54;13.63;;;9.90;;
50803;SDS011;37205;51.434;6.756;2024-01-30T11:30:21;15.95;;;10.15;;
50803;SDS011;37205;51.434;6.756;2024-01-30T11:32:58;14.02;;;10.65;;
50803;SDS011;37205;51.434;6.756;2024-01-30T11:35:37;16.83;;;10.55;;
50803;SDS011;37205;51.434;6.756;2024-01-30T11:38:05;17.33;;;10.80;;
50803;SDS011;37205;51.434;6.756;2024-01-30T11:40:32;14.68;;;10.43;;
50803;SDS011;37205;51.434;6.756;2024-01-30T11:42:59;17.60;;;10.70;;
50803;SDS011;37205;51.434;6.756;2024-01-30T11:45:26;17.85;;;10.75;;
50803;SDS011;37205;51.434;6.756;2024-01-30T11:47:52;17.90;;;11.43;;
50803;SDS011;37205;51.434;6.756;2024-01-30T11:50:18;19.13;;;10.10;;
50803;SDS011;37205;51.434;6.756;2024-01-30T11:52:44;20.13;;;11.73;;
50803;SDS011;37205;51.434;6.756;2024-01-30T11:55:10;19.40;;;10.68;;
50803;SDS011;37205;51.434;6.756;2024-01-30T11:57:35;15.30;;;10.15;;
50803;SDS011;37205;51.434;6.756;2024-01-30T12:00:04;13.80;;;9.77;;
50803;SDS011;37205;51.434;6.756;2024-01-30T12:02:35;14.93;;;10.90;;
50803;SDS011;37205;51.434;6.756;2024-01-30T12:05:05;13.25;;;9.35;;
50803;SDS011;37205;51.434;6.756;2024-01-30T12:07:31;17.27;;;10.02;;
50803;SDS011;37205;51.434;6.756;2024-01-30T12:09:57;16.80;;;8.93;;
50803;SDS011;37205;51.434;6.756;2024-01-30T12:12:23;13.73;;;9.32;;
50803;SDS011;37205;51.434;6.756;2024-01-30T12:14:50;13.73;;;9.20;;
50803;SDS011;37205;51.434;6.756;2024-01-30T12:17:29;15.52;;;9.48;;
50803;SDS011;37205;51.434;6.756;2024-01-30T12:22:31;11.80;;;8.55;;
50803;SDS011;37205;51.434;6.756;2024-01-30T12:25:19;15.93;;;8.82;;
50803;SDS011;37205;51.434;6.756;2024-01-30T12:27:46;12.85;;;8.63;;
50803;SDS011;37205;51.434;6.756;2024-01-30T12:30:16;13.13;;;8.98;;
50803;SDS011;37205;51.434;6.756;2024-01-30T12:32:44;14.30;;;8.50;;
50803;SDS011;37205;51.434;6.756;2024-01-30T12:35:11;12.65;;;9.10;;
50803;SDS011;37205;51.434;6.756;2024-01-30T12:37:38;14.88;;;9.13;;
50803;SDS011;37205;51.434;6.756;2024-01-30T12:40:04;13.63;;;8.60;;
50803;SDS011;37205;51.434;6.756;2024-01-30T12:42:34;16.05;;;9.93;;
50803;SDS011;37205;51.434;6.756;2024-01-30T12:45:00;16.15;;;10.15;;
50803;SDS011;37205;51.434;6.756;2024-01-30T12:47:27;14.93;;;10.05;;
50803;SDS011;37205;51.434;6.756;2024-01-30T12:49:52;14.05;;;10.27;;
50803;SDS011;37205;51.434;6.756;2024-01-30T12:52:18;25.75;;;10.52;;
50803;SDS011;37205;51.434;6.756;2024-01-30T12:54:45;19.75;;;9.95;;
50803;SDS011;37205;51.434;6.756;2024-01-30T12:57:11;19.25;;;10.63;;
50803;SDS011;37205;51.434;6.756;2024-01-30T12:59:36;20.10;;;11.30;;
50803;SDS011;37205;51.434;6.756;2024-01-30T13:02:02;14.48;;;9.65;;
50803;SDS011;37205;51.434;6.756;2024-01-30T13:04:28;15.27;;;9.70;;
50803;SDS011;37205;51.434;6.756;2024-01-30T13:06:54;20.17;;;10.38;;
50803;SDS011;37205;51.434;6.756;2024-01-30T13:09:20;17.33;;;8.95;;
50803;SDS011;37205;51.434;6.756;2024-01-30T13:11:46;17.67;;;9.68;;
50803;SDS011;37205;51.434;6.756;2024-01-30T13:14:11;13.50;;;8.98;;
50803;SDS011;37205;51.434;6.756;2024-01-30T13:16:37;14.20;;;9.20;;
50803;SDS011;37205;51.434;6.756;2024-01-30T13:19:02;13.95;;;8.50;;
50803;SDS011;37205;51.434;6.756;2024-01-30T13:21:28;15.80;;;8.77;;
50803;SDS011;37205;51.434;6.756;2024-01-30T13:23:54;17.10;;;9.63;;
50803;SDS011;37205;51.434;6.756;2024-01-30T13:26:22;16.15;;;9.00;;
50803;SDS011;37205;51.434;6.756;2024-01-30T13:28:48;15.50;;;9.40;;
50803;SDS011;37205;51.434;6.756;2024-01-30T13:31:14;13.70;;;8.85;;
50803;SDS011;37205;51.434;6.756;2024-01-30T13:33:41;15.02;;;8.77;;
50803;SDS011;37205;51.434;6.756;2024-01-30T13:36:07;12.27;;;8.70;;
50803;SDS011;37205;51.434;6.756;2024-01-30T13:38:34;16.15;;;8.20;;
50803;SDS011;37205;51.434;6.756;2024-01-30T13:41:00;15.75;;;8.35;;
50803;SDS011;37205;51.434;6.756;2024-01-30T13:43:25;11.82;;;7.72;;
50803;SDS011;37205;51.434;6.756;2024-01-30T13:45:51;16.50;;;8.52;;
50803;SDS011;37205;51.434;6.756;2024-01-30T13:48:17;14.15;;;8.32;;
50803;SDS011;37205;51.434;6.756;2024-01-30T13:50:42;14.05;;;8.82;;
50803;SDS011;37205;51.434;6.756;2024-01-30T13:53:08;14.15;;;8.35;;
50803;SDS011;37205;51.434;6.756;2024-01-30T13:55:34;17.10;;;8.15;;
50803;SDS011;37205;51.434;6.756;2024-01-30T13:57:59;16.05;;;9.18;;
50803;SDS011;37205;51.434;6.756;2024-01-30T14:00:26;13.60;;;8.40;;
50803;SDS011;37205;51.434;6.756;2024-01-30T14:02:52;14.23;;;8.77;;
50803;SDS011;37205;51.434;6.756;2024-01-30T14:05:19;14.10;;;8.80;;
50803;SDS011;37205;51.434;6.756;2024-01-30T14:07:46;13.18;;;8.88;;
50803;SDS011;37205;51.434;6.756;2024-01-30T14:10:12;14.15;;;8.48;;
50803;SDS011;37205;51.434;6.756;2024-01-30T14:12:37;17.63;;;8.65;;
50803;SDS011;37205;51.434;6.756;2024-01-30T14:15:03;11.95;;;7.85;;
50803;SDS011;37205;51.434;6.756;2024-01-30T14:17:29;12.52;;;8.00;;
50803;SDS011;37205;51.434;6.756;2024-01-30T14:19:54;14.95;;;8.65;;
50803;SDS011;37205;51.434;6.756;2024-01-30T14:22:20;17.13;;;8.45;;
50803;SDS011;37205;51.434;6.756;2024-01-30T14:24:45;14.93;;;8.88;;
50803;SDS011;37205;51.434;6.756;2024-01-30T14:27:12;13.30;;;8.30;;
50803;SDS011;37205;51.434;6.756;2024-01-30T14:29:37;16.23;;;8.18;;
50803;SDS011;37205;51.434;6.756;2024-01-30T14:32:03;12.48;;;8.00;;
50803;SDS011;37205;51.434;6.756;2024-01-30T14:34:29;15.82;;;8.68;;